sensor_id;sensor_type;location;lat;lon;timestamp;pressure;altitude;pressure_sealevel;temperature;humidity
21182;BME280;10749;46.296;7.524;2023-04-03T00:00:22;95051.38;;;8.78;48.99
21182;BME280;10749;46.296;7.524;2023-04-03T00:02:47;95050.38;;;8.71;48.67
21182;BME280;10749;46.296;7.524;2023-04-03T00:05:12;95045.59;;;8.74;48.67
21182;BME280;10749;46.296;7.524;2023-04-03T00:07:38;95048.72;;;8.78;48.68
21182;BME280;10749;46.296;7.524;2023-04-03T00:10:03;95054.34;;;8.75;48.55
21182;BME280;10749;46.296;7.524;2023-04-03T00:12:29;95049.75;;;8.69;48.71
21182;BME280;10749;46.296;7.524;2023-04-03T00:14:54;95047.25;;;8.75;48.76
21182;BME280;10749;46.296;7.524;2023-04-03T00:17:19;95051.91;;;8.73;48.87
21182;BME280;10749;46.296;7.524;2023-04-03T00:19:45;95043.78;;;8.75;48.77
21182;BME280;10749;46.296;7.524;2023-04-03T00:22:10;95046.91;;;8.78;49.01
21182;BME280;10749;46.296;7.524;2023-04-03T00:24:35;95047.25;;;8.84;49.01
21182;BME280;10749;46.296;7.524;2023-04-03T00:27:01;95049.06;;;8.83;49.17
21182;BME280;10749;46.296;7.524;2023-04-03T00:29:26;95049.75;;;8.85;49.40
21182;BME280;10749;46.296;7.524;2023-04-03T00:31:51;95049.56;;;8.87;49.31
21182;BME280;10749;46.296;7.524;2023-04-03T00:34:16;95050.09;;;8.90;49.25
21182;BME280;10749;46.296;7.524;2023-04-03T00:36:42;95044.28;;;8.95;49.50
21182;BME280;10749;46.296;7.524;2023-04-03T00:39:07;95033.91;;;8.93;49.69
21182;BME280;10749;46.296;7.524;2023-04-03T00:41:32;95036.06;;;8.98;49.53
21182;BME280;10749;46.296;7.524;2023-04-03T00:43:57;95034.91;;;9.00;49.35
21182;BME280;10749;46.296;7.524;2023-04-03T00:46:23;95029.97;;;8.97;48.74
21182;BME280;10749;46.296;7.524;2023-04-03T00:48:48;95026.34;;;8.98;48.95
21182;BME280;10749;46.296;7.524;2023-04-03T00:51:20;95035.06;;;8.99;49.34
21182;BME280;10749;46.296;7.524;2023-04-03T00:53:50;95032.75;;;8.96;49.49
21182;BME280;10749;46.296;7.524;2023-04-03T00:56:19;95030.94;;;8.96;49.68
21182;BME280;10749;46.296;7.524;2023-04-03T00:58:50;95025.50;;;8.98;49.69
21182;BME280;10749;46.296;7.524;2023-04-03T01:01:21;95027.97;;;8.99;49.62
21182;BME280;10749;46.296;7.524;2023-04-03T01:03:48;95026.00;;;9.01;49.56
21182;BME280;10749;46.296;7.524;2023-04-03T01:06:16;95019.06;;;9.00;49.47
21182;BME280;10749;46.296;7.524;2023-04-03T01:08:42;95024.66;;;9.05;49.67
21182;BME280;10749;46.296;7.524;2023-04-03T01:11:07;95026.16;;;9.08;49.78
21182;BME280;10749;46.296;7.524;2023-04-03T01:13:33;95019.06;;;9.08;49.57
21182;BME280;10749;46.296;7.524;2023-04-03T01:16:04;95022.03;;;9.05;49.97
21182;BME280;10749;46.296;7.524;2023-04-03T01:18:30;95017.91;;;9.11;50.08
21182;BME280;10749;46.296;7.524;2023-04-03T01:23:53;95018.91;;;9.10;50.54
21182;BME280;10749;46.296;7.524;2023-04-03T01:26:21;95014.44;;;9.10;50.51
21182;BME280;10749;46.296;7.524;2023-04-03T01:28:47;95022.84;;;9.14;50.42
21182;BME280;10749;46.296;7.524;2023-04-03T01:31:28;95023.34;;;9.09;50.52
21182;BME280;10749;46.296;7.524;2023-04-03T01:33:56;95021.69;;;9.00;50.97
21182;BME280;10749;46.296;7.524;2023-04-03T01:36:24;95025.00;;;8.94;50.85
21182;BME280;10749;46.296;7.524;2023-04-03T01:38:51;95028.63;;;8.93;50.71
21182;BME280;10749;46.296;7.524;2023-04-03T01:41:17;95023.69;;;8.98;49.71
21182;BME280;10749;46.296;7.524;2023-04-03T01:43:43;95021.84;;;8.99;49.92
21182;BME280;10749;46.296;7.524;2023-04-03T01:46:08;95022.69;;;8.99;49.67
21182;BME280;10749;46.296;7.524;2023-04-03T01:48:34;95021.06;;;8.98;49.86
21182;BME280;10749;46.296;7.524;2023-04-03T01:50:59;95021.19;;;9.05;50.14
21182;BME280;10749;46.296;7.524;2023-04-03T01:53:25;95019.41;;;9.05;50.17
21182;BME280;10749;46.296;7.524;2023-04-03T01:55:50;95020.38;;;9.04;50.52
21182;BME280;10749;46.296;7.524;2023-04-03T01:58:15;95015.09;;;9.04;50.57
21182;BME280;10749;46.296;7.524;2023-04-03T02:00:41;95018.72;;;9.03;50.65
21182;BME280;10749;46.296;7.524;2023-04-03T02:03:06;95014.59;;;9.01;50.96
21182;BME280;10749;46.296;7.524;2023-04-03T02:05:32;95009.81;;;9.04;50.92
21182;BME280;10749;46.296;7.524;2023-04-03T02:07:57;95013.13;;;9.06;51.09
21182;BME280;10749;46.296;7.524;2023-04-03T02:10:22;95012.59;;;9.03;51.11
21182;BME280;10749;46.296;7.524;2023-04-03T02:12:48;95012.13;;;8.99;51.17
21182;BME280;10749;46.296;7.524;2023-04-03T02:15:13;95017.41;;;8.99;51.07
21182;BME280;10749;46.296;7.524;2023-04-03T02:17:39;95014.25;;;9.04;51.36
21182;BME280;10749;46.296;7.524;2023-04-03T02:20:04;95012.13;;;9.07;51.31
21182;BME280;10749;46.296;7.524;2023-04-03T02:22:30;95006.66;;;9.17;50.57
21182;BME280;10749;46.296;7.524;2023-04-03T02:24:55;95009.16;;;9.18;50.67
21182;BME280;10749;46.296;7.524;2023-04-03T02:27:21;95003.19;;;9.16;50.79
21182;BME280;10749;46.296;7.524;2023-04-03T02:29:46;95004.38;;;9.14;51.22
21182;BME280;10749;46.296;7.524;2023-04-03T02:32:11;95005.00;;;9.16;51.19
21182;BME280;10749;46.296;7.524;2023-04-03T02:34:37;95001.22;;;9.18;51.18
21182;BME280;10749;46.296;7.524;2023-04-03T02:37:02;94993.81;;;9.14;51.24
21182;BME280;10749;46.296;7.524;2023-04-03T02:39:27;95001.88;;;9.20;51.18
21182;BME280;10749;46.296;7.524;2023-04-03T02:41:53;95001.22;;;9.18;51.52
21182;BME280;10749;46.296;7.524;2023-04-03T02:44:18;95000.22;;;9.11;51.47
21182;BME280;10749;46.296;7.524;2023-04-03T02:46:44;95001.72;;;9.14;51.23
21182;BME280;10749;46.296;7.524;2023-04-03T02:49:09;94998.25;;;9.13;51.09
21182;BME280;10749;46.296;7.524;2023-04-03T02:51:34;94992.66;;;9.08;51.30
21182;BME280;10749;46.296;7.524;2023-04-03T02:54:00;94993.16;;;9.04;51.45
21182;BME280;10749;46.296;7.524;2023-04-03T02:56:25;94983.06;;;9.07;51.39
21182;BME280;10749;46.296;7.524;2023-04-03T02:58:51;94988.84;;;9.03;51.23
21182;BME280;10749;46.296;7.524;2023-04-03T03:01:17;94985.06;;;9.05;50.97
21182;BME280;10749;46.296;7.524;2023-04-03T03:03:42;94984.25;;;9.05;50.88
21182;BME280;10749;46.296;7.524;2023-04-03T03:06:11;94988.06;;;9.02;50.74
21182;BME280;10749;46.296;7.524;2023-04-03T03:08:37;94981.75;;;9.03;50.33
21182;BME280;10749;46.296;7.524;2023-04-03T03:11:03;94986.22;;;9.03;50.03
21182;BME280;10749;46.296;7.524;2023-04-03T03:13:29;94988.53;;;8.98;50.20
21182;BME280;10749;46.296;7.524;2023-04-03T03:15:54;94988.69;;;8.96;50.12
21182;BME280;10749;46.296;7.524;2023-04-03T03:18:21;94991.34;;;8.96;50.19
21182;BME280;10749;46.296;7.524;2023-04-03T03:20:46;94992.31;;;8.95;50.84
21182;BME280;10749;46.296;7.524;2023-04-03T03:23:11;94991.00;;;8.99;50.52
21182;BME280;10749;46.296;7.524;2023-04-03T03:25:40;94992.66;;;9.00;50.95
21182;BME280;10749;46.296;7.524;2023-04-03T03:28:06;94990.34;;;8.97;51.57
21182;BME280;10749;46.296;7.524;2023-04-03T03:30:32;94990.03;;;9.00;51.50
21182;BME280;10749;46.296;7.524;2023-04-03T03:32:57;94992.31;;;9.03;51.54
21182;BME280;10749;46.296;7.524;2023-04-03T03:35:22;94997.28;;;9.06;51.81
21182;BME280;10749;46.296;7.524;2023-04-03T03:37:48;94986.72;;;9.06;51.45
21182;BME280;10749;46.296;7.524;2023-04-03T03:40:13;94988.19;;;9.09;51.77
21182;BME280;10749;46.296;7.524;2023-04-03T03:42:39;94988.03;;;9.10;51.48
21182;BME280;10749;46.296;7.524;2023-04-03T03:45:05;94986.88;;;9.13;51.95
21182;BME280;10749;46.296;7.524;2023-04-03T03:47:30;94986.88;;;9.13;51.79
21182;BME280;10749;46.296;7.524;2023-04-03T03:49:56;94987.69;;;9.13;51.87
21182;BME280;10749;46.296;7.524;2023-04-03T03:52:21;94986.53;;;9.08;51.87
21182;BME280;10749;46.296;7.524;2023-04-03T03:54:46;94980.63;;;9.06;52.06
21182;BME280;10749;46.296;7.524;2023-04-03T03:57:12;94984.91;;;9.07;51.79
21182;BME280;10749;46.296;7.524;2023-04-03T03:59:37;94990.00;;;9.08;51.90
21182;BME280;10749;46.296;7.524;2023-04-03T04:02:03;94983.25;;;9.14;52.10
21182;BME280;10749;46.296;7.524;2023-04-03T04:04:28;94988.03;;;9.10;52.18
21182;BME280;10749;46.296;7.524;2023-04-03T04:06:53;94978.31;;;9.11;52.43
21182;BME280;10749;46.296;7.524;2023-04-03T04:09:18;94984.38;;;9.11;52.33
21182;BME280;10749;46.296;7.524;2023-04-03T04:11:44;94981.09;;;9.09;52.29
21182;BME280;10749;46.296;7.524;2023-04-03T04:14:10;94985.41;;;9.10;52.46
21182;BME280;10749;46.296;7.524;2023-04-03T04:16:37;94988.19;;;9.09;52.47
21182;BME280;10749;46.296;7.524;2023-04-03T04:19:02;94973.81;;;9.11;52.17
21182;BME280;10749;46.296;7.524;2023-04-03T04:21:27;94987.03;;;9.11;51.31
21182;BME280;10749;46.296;7.524;2023-04-03T04:23:53;94977.63;;;9.09;51.23
21182;BME280;10749;46.296;7.524;2023-04-03T04:26:18;94985.41;;;9.10;51.67
21182;BME280;10749;46.296;7.524;2023-04-03T04:28:43;94981.75;;;9.11;51.63
21182;BME280;10749;46.296;7.524;2023-04-03T04:31:08;94979.44;;;9.08;52.00
21182;BME280;10749;46.296;7.524;2023-04-03T04:33:34;94963.59;;;9.08;52.34
21182;BME280;10749;46.296;7.524;2023-04-03T04:35:59;94979.78;;;9.05;52.50
21182;BME280;10749;46.296;7.524;2023-04-03T04:38:25;94970.38;;;9.03;52.86
21182;BME280;10749;46.296;7.524;2023-04-03T04:40:50;94970.22;;;9.04;52.60
21182;BME280;10749;46.296;7.524;2023-04-03T04:43:16;94967.91;;;9.09;52.34
21182;BME280;10749;46.296;7.524;2023-04-03T04:45:41;94973.50;;;9.14;52.64
21182;BME280;10749;46.296;7.524;2023-04-03T04:48:07;94959.81;;;9.19;52.36
21182;BME280;10749;46.296;7.524;2023-04-03T04:50:32;94959.63;;;9.12;52.93
21182;BME280;10749;46.296;7.524;2023-04-03T04:52:58;94960.13;;;9.08;52.95
21182;BME280;10749;46.296;7.524;2023-04-03T04:55:23;94960.94;;;9.16;53.11
21182;BME280;10749;46.296;7.524;2023-04-03T04:57:48;94965.09;;;9.19;52.76
21182;BME280;10749;46.296;7.524;2023-04-03T05:00:14;94958.97;;;9.18;52.80
21182;BME280;10749;46.296;7.524;2023-04-03T05:02:40;94971.16;;;9.19;52.92
21182;BME280;10749;46.296;7.524;2023-04-03T05:05:05;94969.69;;;9.25;52.31
21182;BME280;10749;46.296;7.524;2023-04-03T05:07:31;94976.78;;;9.24;52.15
21182;BME280;10749;46.296;7.524;2023-04-03T05:09:56;94963.91;;;9.21;52.35
21182;BME280;10749;46.296;7.524;2023-04-03T05:12:21;94973.50;;;9.14;52.64
21182;BME280;10749;46.296;7.524;2023-04-03T05:14:47;94975.81;;;9.09;52.70
21182;BME280;10749;46.296;7.524;2023-04-03T05:17:12;94961.94;;;9.07;52.88
21182;BME280;10749;46.296;7.524;2023-04-03T05:19:37;94972.84;;;9.04;52.94
21182;BME280;10749;46.296;7.524;2023-04-03T05:22:03;94975.81;;;9.09;53.13
21182;BME280;10749;46.296;7.524;2023-04-03T05:24:28;94975.47;;;9.12;52.97
21182;BME280;10749;46.296;7.524;2023-04-03T05:26:53;94977.78;;;9.07;52.82
21182;BME280;10749;46.296;7.524;2023-04-03T05:29:20;94976.16;;;9.06;53.04
21182;BME280;10749;46.296;7.524;2023-04-03T05:31:49;94977.16;;;9.05;53.12
21182;BME280;10749;46.296;7.524;2023-04-03T05:34:14;94971.19;;;9.03;53.16
21182;BME280;10749;46.296;7.524;2023-04-03T05:36:39;94974.03;;;9.02;53.28
21182;BME280;10749;46.296;7.524;2023-04-03T05:39:05;94979.78;;;9.05;53.37
21182;BME280;10749;46.296;7.524;2023-04-03T05:41:30;94976.16;;;9.06;53.40
21182;BME280;10749;46.296;7.524;2023-04-03T05:43:56;94968.38;;;9.13;52.68
21182;BME280;10749;46.296;7.524;2023-04-03T05:46:21;94973.50;;;9.14;52.37
21182;BME280;10749;46.296;7.524;2023-04-03T05:48:47;94971.69;;;9.15;52.80
21182;BME280;10749;46.296;7.524;2023-04-03T05:51:16;94975.97;;;9.16;53.23
21182;BME280;10749;46.296;7.524;2023-04-03T05:53:43;94971.50;;;9.16;53.57
21182;BME280;10749;46.296;7.524;2023-04-03T05:56:09;94966.56;;;9.21;53.43
21182;BME280;10749;46.296;7.524;2023-04-03T05:58:34;94977.09;;;9.30;53.66
21182;BME280;10749;46.296;7.524;2023-04-03T06:00:59;94984.19;;;9.29;53.55
21182;BME280;10749;46.296;7.524;2023-04-03T06:03:25;94973.47;;;9.31;53.82
21182;BME280;10749;46.296;7.524;2023-04-03T06:05:51;94975.63;;;9.35;53.52
21182;BME280;10749;46.296;7.524;2023-04-03T06:08:16;94979.06;;;9.44;53.51
21182;BME280;10749;46.296;7.524;2023-04-03T06:10:41;94981.53;;;9.45;53.09
21182;BME280;10749;46.296;7.524;2023-04-03T06:13:07;94992.41;;;9.50;53.11
21182;BME280;10749;46.296;7.524;2023-04-03T06:15:33;94982.66;;;9.51;53.19
21182;BME280;10749;46.296;7.524;2023-04-03T06:17:59;94989.59;;;9.52;53.42
21182;BME280;10749;46.296;7.524;2023-04-03T06:20:24;94986.78;;;9.53;53.71
21182;BME280;10749;46.296;7.524;2023-04-03T06:22:49;94990.72;;;9.57;53.53
21182;BME280;10749;46.296;7.524;2023-04-03T06:25:16;94984.94;;;9.62;53.82
21182;BME280;10749;46.296;7.524;2023-04-03T06:27:44;94984.72;;;9.80;54.36
21182;BME280;10749;46.296;7.524;2023-04-03T06:30:10;94984.75;;;10.02;54.31
21182;BME280;10749;46.296;7.524;2023-04-03T06:32:36;94986.72;;;10.16;54.06
21182;BME280;10749;46.296;7.524;2023-04-03T06:35:01;94989.38;;;10.08;54.00
21182;BME280;10749;46.296;7.524;2023-04-03T06:37:26;94995.03;;;10.05;53.80
21182;BME280;10749;46.296;7.524;2023-04-03T06:39:54;94998.34;;;9.99;53.80
21182;BME280;10749;46.296;7.524;2023-04-03T06:42:19;94997.66;;;10.05;53.82
21182;BME280;10749;46.296;7.524;2023-04-03T06:44:45;95003.78;;;10.06;54.02
21182;BME280;10749;46.296;7.524;2023-04-03T06:47:14;94995.66;;;10.15;54.20
21182;BME280;10749;46.296;7.524;2023-04-03T06:49:40;94997.31;;;10.16;53.87
21182;BME280;10749;46.296;7.524;2023-04-03T06:52:06;94990.50;;;10.22;53.83
21182;BME280;10749;46.296;7.524;2023-04-03T06:54:32;94991.56;;;10.36;53.97
21182;BME280;10749;46.296;7.524;2023-04-03T06:56:57;94986.06;;;10.45;54.12
21182;BME280;10749;46.296;7.524;2023-04-03T06:59:23;94996.38;;;10.63;54.08
21182;BME280;10749;46.296;7.524;2023-04-03T07:01:48;94981.72;;;10.75;54.01
21182;BME280;10749;46.296;7.524;2023-04-03T07:04:14;94989.59;;;10.83;53.80
21182;BME280;10749;46.296;7.524;2023-04-03T07:06:40;94985.34;;;10.97;54.05
21182;BME280;10749;46.296;7.524;2023-04-03T07:09:06;94975.16;;;11.08;54.15
21182;BME280;10749;46.296;7.524;2023-04-03T07:11:32;94982.81;;;11.18;53.91
21182;BME280;10749;46.296;7.524;2023-04-03T07:13:58;94979.63;;;11.23;53.72
21182;BME280;10749;46.296;7.524;2023-04-03T07:16:23;94976.00;;;11.24;53.88
21182;BME280;10749;46.296;7.524;2023-04-03T07:18:48;94981.03;;;11.33;53.84
21182;BME280;10749;46.296;7.524;2023-04-03T07:21:14;94979.41;;;11.47;53.56
21182;BME280;10749;46.296;7.524;2023-04-03T07:23:39;94971.09;;;11.50;53.08
21182;BME280;10749;46.296;7.524;2023-04-03T07:26:05;94964.50;;;11.46;52.93
21182;BME280;10749;46.296;7.524;2023-04-03T07:28:31;94973.09;;;11.48;52.84
21182;BME280;10749;46.296;7.524;2023-04-03T07:31:10;94971.28;;;11.48;52.35
21182;BME280;10749;46.296;7.524;2023-04-03T07:33:38;94968.88;;;11.39;52.59
21182;BME280;10749;46.296;7.524;2023-04-03T07:36:05;94956.66;;;11.38;52.82
21182;BME280;10749;46.296;7.524;2023-04-03T07:38:32;94964.50;;;11.46;53.12
21182;BME280;10749;46.296;7.524;2023-04-03T07:40:57;94957.56;;;11.59;53.10
21182;BME280;10749;46.296;7.524;2023-04-03T07:43:23;94959.03;;;11.62;53.11
21182;BME280;10749;46.296;7.524;2023-04-03T07:45:51;94961.59;;;11.70;52.91
21182;BME280;10749;46.296;7.524;2023-04-03T07:48:19;94958.88;;;11.78;52.71
21182;BME280;10749;46.296;7.524;2023-04-03T07:50:45;94961.06;;;11.89;52.47
21182;BME280;10749;46.296;7.524;2023-04-03T07:53:11;94959.44;;;11.88;52.69
21182;BME280;10749;46.296;7.524;2023-04-03T07:55:36;94954.56;;;11.92;52.48
21182;BME280;10749;46.296;7.524;2023-04-03T07:58:11;94946.50;;;12.00;52.33
21182;BME280;10749;46.296;7.524;2023-04-03T08:00:37;94942.38;;;11.97;52.09
21182;BME280;10749;46.296;7.524;2023-04-03T08:03:03;94944.94;;;12.06;52.26
21182;BME280;10749;46.296;7.524;2023-04-03T08:05:28;94939.38;;;12.00;51.92
21182;BME280;10749;46.296;7.524;2023-04-03T08:07:53;94944.41;;;11.95;51.84
21182;BME280;10749;46.296;7.524;2023-04-03T08:10:19;94945.84;;;12.13;51.30
21182;BME280;10749;46.296;7.524;2023-04-03T08:12:46;94938.88;;;12.12;51.59
21182;BME280;10749;46.296;7.524;2023-04-03T08:15:12;94941.31;;;12.28;51.59
21182;BME280;10749;46.296;7.524;2023-04-03T08:17:37;94940.00;;;12.38;51.23
21182;BME280;10749;46.296;7.524;2023-04-03T08:20:04;94934.25;;;12.35;51.15
21182;BME280;10749;46.296;7.524;2023-04-03T08:22:32;94937.84;;;12.27;51.48
21182;BME280;10749;46.296;7.524;2023-04-03T08:24:57;94932.97;;;12.31;51.46
21182;BME280;10749;46.296;7.524;2023-04-03T08:27:22;94930.84;;;12.41;51.50
21182;BME280;10749;46.296;7.524;2023-04-03T08:29:47;94928.34;;;12.54;51.39
21182;BME280;10749;46.296;7.524;2023-04-03T08:32:13;94918.06;;;12.51;51.02
21182;BME280;10749;46.296;7.524;2023-04-03T08:34:38;94914.28;;;12.39;50.58
21182;BME280;10749;46.296;7.524;2023-04-03T08:37:04;94917.88;;;12.31;50.93
21182;BME280;10749;46.296;7.524;2023-04-03T08:39:30;94913.09;;;12.41;51.30
21182;BME280;10749;46.296;7.524;2023-04-03T08:41:58;94905.44;;;12.53;50.94
21182;BME280;10749;46.296;7.524;2023-04-03T08:44:56;94907.19;;;12.67;51.05
21182;BME280;10749;46.296;7.524;2023-04-03T08:47:29;94911.22;;;12.84;50.78
21182;BME280;10749;46.296;7.524;2023-04-03T08:50:04;94907.31;;;12.80;50.62
21182;BME280;10749;46.296;7.524;2023-04-03T08:52:48;94906.47;;;12.80;50.90
21182;BME280;10749;46.296;7.524;2023-04-03T08:55:21;94897.59;;;12.87;50.61
21182;BME280;10749;46.296;7.524;2023-04-03T08:57:48;94892.63;;;12.84;50.08
21182;BME280;10749;46.296;7.524;2023-04-03T09:00:19;94886.59;;;12.97;49.99
21182;BME280;10749;46.296;7.524;2023-04-03T09:02:47;94886.28;;;13.07;49.85
21182;BME280;10749;46.296;7.524;2023-04-03T09:05:19;94888.28;;;13.05;49.57
21182;BME280;10749;46.296;7.524;2023-04-03T09:07:47;94877.28;;;13.08;49.82
21182;BME280;10749;46.296;7.524;2023-04-03T09:10:16;94879.16;;;12.86;49.02
21182;BME280;10749;46.296;7.524;2023-04-03T09:12:47;94871.50;;;12.98;49.29
21182;BME280;10749;46.296;7.524;2023-04-03T09:15:20;94871.97;;;13.08;49.45
21182;BME280;10749;46.296;7.524;2023-04-03T09:20:46;94879.78;;;13.37;49.26
21182;BME280;10749;46.296;7.524;2023-04-03T09:25:51;94867.84;;;13.67;49.10
21182;BME280;10749;46.296;7.524;2023-04-03T09:28:19;94866.44;;;13.71;49.09
21182;BME280;10749;46.296;7.524;2023-04-03T09:30:44;94863.97;;;13.70;48.92
21182;BME280;10749;46.296;7.524;2023-04-03T09:33:11;94859.25;;;13.65;49.11
21182;BME280;10749;46.296;7.524;2023-04-03T09:35:37;94854.53;;;13.61;49.05
21182;BME280;10749;46.296;7.524;2023-04-03T09:40:40;94855.34;;;13.61;48.33
21182;BME280;10749;46.296;7.524;2023-04-03T09:45:54;94845.31;;;13.63;48.46
21182;BME280;10749;46.296;7.524;2023-04-03T09:48:22;94839.16;;;13.50;48.10
21182;BME280;10749;46.296;7.524;2023-04-03T09:53:39;94842.66;;;13.63;48.31
21182;BME280;10749;46.296;7.524;2023-04-03T09:58:44;94829.88;;;14.00;48.00
21182;BME280;10749;46.296;7.524;2023-04-03T10:01:31;94825.66;;;14.25;47.84
21182;BME280;10749;46.296;7.524;2023-04-03T10:04:13;94821.84;;;14.47;47.91
21182;BME280;10749;46.296;7.524;2023-04-03T10:06:46;94814.88;;;14.59;47.71
21182;BME280;10749;46.296;7.524;2023-04-03T10:12:08;94804.59;;;14.96;47.30
21182;BME280;10749;46.296;7.524;2023-04-03T10:14:37;94806.03;;;15.11;47.45
21182;BME280;10749;46.296;7.524;2023-04-03T10:17:24;94800.47;;;15.19;47.09
21182;BME280;10749;46.296;7.524;2023-04-03T10:22:37;94784.94;;;14.84;45.93
21182;BME280;10749;46.296;7.524;2023-04-03T10:25:28;94790.44;;;15.02;46.28
21182;BME280;10749;46.296;7.524;2023-04-03T10:28:02;94791.06;;;15.04;46.05
21182;BME280;10749;46.296;7.524;2023-04-03T10:31:09;94778.69;;;15.29;46.38
21182;BME280;10749;46.296;7.524;2023-04-03T10:39:54;94770.44;;;15.57;44.62
21182;BME280;10749;46.296;7.524;2023-04-03T10:41:57;94766.47;;;15.66;44.24
21182;BME280;10749;46.296;7.524;2023-04-03T10:44:42;94769.47;;;15.83;44.51
21182;BME280;10749;46.296;7.524;2023-04-03T10:47:26;94770.59;;;16.00;44.80
21182;BME280;10749;46.296;7.524;2023-04-03T10:52:56;94759.75;;;16.26;45.26
21182;BME280;10749;46.296;7.524;2023-04-03T10:57:53;94751.22;;;16.92;45.27
21182;BME280;10749;46.296;7.524;2023-04-03T11:00:30;94744.03;;;17.11;45.06
21182;BME280;10749;46.296;7.524;2023-04-03T11:02:59;94738.75;;;17.04;44.85
21182;BME280;10749;46.296;7.524;2023-04-03T11:05:39;94727.16;;;16.92;44.52
21182;BME280;10749;46.296;7.524;2023-04-03T11:08:12;94731.78;;;16.85;44.92
21182;BME280;10749;46.296;7.524;2023-04-03T11:10:42;94724.03;;;16.95;45.47
21182;BME280;10749;46.296;7.524;2023-04-03T11:13:21;94714.78;;;16.97;45.29
21182;BME280;10749;46.296;7.524;2023-04-03T11:15:49;94709.13;;;16.87;44.42
21182;BME280;10749;46.296;7.524;2023-04-03T11:18:23;94702.38;;;17.03;43.91
21182;BME280;10749;46.296;7.524;2023-04-03T11:21:06;94700.56;;;17.15;44.01
21182;BME280;10749;46.296;7.524;2023-04-03T11:23:35;94696.78;;;17.23;43.20
21182;BME280;10749;46.296;7.524;2023-04-03T11:26:16;94699.41;;;17.29;43.64
21182;BME280;10749;46.296;7.524;2023-04-03T11:28:42;94682.53;;;17.29;43.18
21182;BME280;10749;46.296;7.524;2023-04-03T11:34:22;94679.28;;;17.75;43.34
21182;BME280;10749;46.296;7.524;2023-04-03T11:36:56;94673.81;;;17.81;43.15
21182;BME280;10749;46.296;7.524;2023-04-03T11:39:35;94667.03;;;17.97;42.63
21182;BME280;10749;46.296;7.524;2023-04-03T11:42:36;94659.81;;;18.09;42.71
21182;BME280;10749;46.296;7.524;2023-04-03T11:47:49;94651.06;;;18.02;41.77
21182;BME280;10749;46.296;7.524;2023-04-03T11:50:47;94649.00;;;18.16;41.55
21182;BME280;10749;46.296;7.524;2023-04-03T11:58:17;94645.91;;;18.54;42.17
21182;BME280;10749;46.296;7.524;2023-04-03T12:00:55;94642.19;;;18.55;41.36
21182;BME280;10749;46.296;7.524;2023-04-03T12:16:26;94618.16;;;18.83;40.46
21182;BME280;10749;46.296;7.524;2023-04-03T12:24:02;94608.84;;;18.74;39.36
21182;BME280;10749;46.296;7.524;2023-04-03T12:29:21;94598.44;;;18.89;40.35
21182;BME280;10749;46.296;7.524;2023-04-03T12:40:27;94576.13;;;19.12;39.09
21182;BME280;10749;46.296;7.524;2023-04-03T12:45:52;94569.59;;;19.36;38.92
21182;BME280;10749;46.296;7.524;2023-04-03T12:48:24;94569.38;;;19.38;38.01
21182;BME280;10749;46.296;7.524;2023-04-03T12:50:51;94561.88;;;19.40;38.89
21182;BME280;10749;46.296;7.524;2023-04-03T12:53:19;94557.56;;;19.38;38.77
21182;BME280;10749;46.296;7.524;2023-04-03T12:55:46;94551.16;;;19.40;39.04
21182;BME280;10749;46.296;7.524;2023-04-03T12:58:19;94546.69;;;19.73;38.94
21182;BME280;10749;46.296;7.524;2023-04-03T13:00:46;94553.75;;;19.96;38.88
21182;BME280;10749;46.296;7.524;2023-04-03T13:03:25;94541.41;;;19.78;37.55
21182;BME280;10749;46.296;7.524;2023-04-03T13:05:54;94546.34;;;19.70;38.71
21182;BME280;10749;46.296;7.524;2023-04-03T13:08:20;94538.44;;;19.80;38.24
21182;BME280;10749;46.296;7.524;2023-04-03T13:10:58;94541.53;;;19.89;37.57
21182;BME280;10749;46.296;7.524;2023-04-03T13:13:24;94539.44;;;20.07;37.19
21182;BME280;10749;46.296;7.524;2023-04-03T13:15:52;94545.44;;;20.14;37.07
21182;BME280;10749;46.296;7.524;2023-04-03T13:18:33;94528.09;;;20.22;36.69
21182;BME280;10749;46.296;7.524;2023-04-03T13:23:30;94524.69;;;19.93;35.43
21182;BME280;10749;46.296;7.524;2023-04-03T13:25:56;94525.13;;;19.85;35.49
21182;BME280;10749;46.296;7.524;2023-04-03T13:28:26;94527.38;;;19.93;35.34
21182;BME280;10749;46.296;7.524;2023-04-03T13:31:01;94519.09;;;19.95;35.64
21182;BME280;10749;46.296;7.524;2023-04-03T13:33:30;94524.47;;;19.78;35.08
21182;BME280;10749;46.296;7.524;2023-04-03T13:36:08;94519.97;;;19.83;35.34
21182;BME280;10749;46.296;7.524;2023-04-03T13:38:40;94511.28;;;19.93;36.13
21182;BME280;10749;46.296;7.524;2023-04-03T13:41:24;94505.91;;;19.93;35.31
21182;BME280;10749;46.296;7.524;2023-04-03T13:43:49;94511.53;;;20.08;36.46
21182;BME280;10749;46.296;7.524;2023-04-03T13:48:47;94501.50;;;20.37;36.04
21182;BME280;10749;46.296;7.524;2023-04-03T13:53:46;94502.13;;;20.27;35.76
21182;BME280;10749;46.296;7.524;2023-04-03T13:56:36;94485.38;;;20.20;35.41
21182;BME280;10749;46.296;7.524;2023-04-03T14:01:53;94489.63;;;20.16;35.08
21182;BME280;10749;46.296;7.524;2023-04-03T14:04:25;94492.53;;;20.32;35.31
21182;BME280;10749;46.296;7.524;2023-04-03T14:06:52;94489.94;;;20.37;35.11
21182;BME280;10749;46.296;7.524;2023-04-03T14:09:19;94487.78;;;20.22;34.53
21182;BME280;10749;46.296;7.524;2023-04-03T14:11:46;94484.78;;;20.18;35.08
21182;BME280;10749;46.296;7.524;2023-04-03T14:14:21;94467.72;;;20.08;34.46
21182;BME280;10749;46.296;7.524;2023-04-03T14:16:52;94458.16;;;20.17;34.45
21182;BME280;10749;46.296;7.524;2023-04-03T14:19:30;94450.34;;;20.32;34.85
21182;BME280;10749;46.296;7.524;2023-04-03T14:21:57;94469.16;;;20.32;35.15
21182;BME280;10749;46.296;7.524;2023-04-03T14:24:23;94463.06;;;20.20;34.32
21182;BME280;10749;46.296;7.524;2023-04-03T14:26:50;94449.47;;;20.10;34.25
21182;BME280;10749;46.296;7.524;2023-04-03T14:29:17;94453.91;;;19.99;34.73
21182;BME280;10749;46.296;7.524;2023-04-03T14:31:44;94438.03;;;19.98;34.44
21182;BME280;10749;46.296;7.524;2023-04-03T14:34:11;94447.84;;;20.09;34.43
21182;BME280;10749;46.296;7.524;2023-04-03T14:36:37;94441.38;;;20.26;34.37
21182;BME280;10749;46.296;7.524;2023-04-03T14:39:05;94432.16;;;20.39;34.03